Time;durP1;ratioP1;P1;durP2;ratioP2;P2;SDS_P1;SDS_P2;PMS_P1;PMS_P2;Temp;Humidity;BMP_temperature;BMP_pressure;BME280_temperature;BME280_humidity;BME280_pressure;Samples;Min_cycle;Max_cycle;Signal;HPM_P1;HPM_P2
2021/01/09 00:01:21;;;;;;;;;;;;;;;-1.07;100.00;99340.53;4911423;29;19954;-81
2021/01/09 00:03:46;;;;;;;;;;;;;;;-1.08;100.00;99343.00;4910910;29;19981;-79
2021/01/09 00:06:12;;;;;;;;;;;;;;;-1.10;100.00;99347.19;4910854;29;19919;-80
2021/01/09 00:08:37;;;;;;;;;;;;;;;-1.09;100.00;99359.00;4911454;29;19959;-81
2021/01/09 00:11:03;;;;;;;;;;;;;;;-1.11;100.00;99346.34;4910466;29;19915;-82
2021/01/09 00:13:28;;;;;;;;;;;;;;;-1.14;100.00;99346.28;4910267;29;19927;-81
2021/01/09 00:15:53;;;;;;;;;;;;;;;-1.18;100.00;99358.81;4902250;29;19919;-80
2021/01/09 00:18:19;;;;;;;;;;;;;;;-1.13;100.00;99352.19;4896123;29;19915;-80
2021/01/09 00:20:44;;;;;;;;;;;;;;;-1.12;100.00;99363.97;4902872;29;19927;-81
2021/01/09 00:23:09;;;;;;;;;;;;;;;-1.07;100.00;99357.38;4909799;29;19942;-79
2021/01/09 00:25:35;;;;;;;;;;;;;;;-1.02;100.00;99354.94;4909964;29;19931;-81
2021/01/09 00:28:00;;;;;;;;;;;;;;;-1.01;100.00;99357.47;4909223;29;19919;-81
2021/01/09 00:30:25;;;;;;;;;;;;;;;-1.00;100.00;99354.13;4896239;29;19927;-80
2021/01/09 00:32:51;;;;;;;;;;;;;;;-1.06;100.00;99361.59;4925885;29;19922;-80
2021/01/09 00:35:16;;;;;;;;;;;;;;;-1.10;100.00;99357.28;4910090;29;19923;-80
2021/01/09 00:37:42;;;;;;;;;;;;;;;-1.06;100.00;99361.59;4910275;29;20344;-81
2021/01/09 00:40:07;;;;;;;;;;;;;;;-1.02;100.00;99365.03;4909779;29;19981;-81
2021/01/09 00:42:39;;;;;;;;;;;;;;;-1.05;100.00;99365.81;4909528;29;19926;-81
2021/01/09 00:45:05;;;;;;;;;;;;;;;-1.02;100.00;99370.09;4879952;29;20385;-80
2021/01/09 00:47:31;;;;;;;;;;;;;;;-1.03;100.00;99369.22;4909758;29;20044;-81
2021/01/09 00:49:56;;;;;;;;;;;;;;;-0.99;100.00;99380.25;4900634;29;19992;-80
2021/01/09 00:52:21;;;;;;;;;;;;;;;-0.95;100.00;99372.78;4909876;29;20002;-81
2021/01/09 00:54:47;;;;;;;;;;;;;;;-0.96;100.00;99368.53;4909481;29;19919;-82
2021/01/09 00:57:12;;;;;;;;;;;;;;;-0.97;100.00;99366.84;4896817;29;19919;-80
2021/01/09 00:59:37;;;;;;;;;;;;;;;-1.00;100.00;99383.59;4909331;29;20921;-81
2021/01/09 01:02:03;;;;;;;;;;;;;;;-0.98;100.00;99377.78;4896116;29;20345;-80
2021/01/09 01:04:28;;;;;;;;;;;;;;;-0.98;100.00;99387.00;4897221;29;19926;-82
2021/01/09 01:06:54;;;;;;;;;;;;;;;-0.99;100.00;99386.16;4926652;29;20779;-81
2021/01/09 01:09:19;;;;;;;;;;;;;;;-0.99;100.00;99386.16;4908912;29;19918;-81
2021/01/09 01:11:45;;;;;;;;;;;;;;;-0.97;100.00;99387.06;4910217;29;19930;-81
2021/01/09 01:14:10;;;;;;;;;;;;;;;-0.96;100.00;99381.16;4909906;29;19919;-81
2021/01/09 01:16:35;;;;;;;;;;;;;;;-1.00;100.00;99392.06;4899279;29;19934;-81
2021/01/09 01:19:01;;;;;;;;;;;;;;;-1.02;100.00;99386.13;4896655;29;19923;-80
2021/01/09 01:21:26;;;;;;;;;;;;;;;-0.99;100.00;99391.22;4899668;29;20980;-81
2021/01/09 01:23:52;;;;;;;;;;;;;;;-1.01;100.00;99392.00;4901086;29;19926;-80
2021/01/09 01:26:17;;;;;;;;;;;;;;;-0.99;100.00;99392.91;4900296;29;19918;-81
2021/01/09 01:28:42;;;;;;;;;;;;;;;-0.99;100.00;99401.34;4909730;29;19924;-80
2021/01/09 01:31:08;;;;;;;;;;;;;;;-1.01;100.00;99402.97;4899066;29;19919;-80
2021/01/09 01:33:33;;;;;;;;;;;;;;;-1.03;100.00;99404.59;4909375;29;19933;-80
2021/01/09 01:35:59;;;;;;;;;;;;;;;-1.00;100.00;99404.69;4909324;29;19969;-82
2021/01/09 01:38:24;;;;;;;;;;;;;;;-1.03;100.00;99414.72;4894580;29;19922;-80
2021/01/09 01:40:49;;;;;;;;;;;;;;;-1.06;100.00;99415.50;4925016;29;20053;-81
2021/01/09 01:43:15;;;;;;;;;;;;;;;-1.08;100.00;99421.38;4909332;29;19930;-82
2021/01/09 01:45:40;;;;;;;;;;;;;;;-1.03;100.00;99416.41;4896970;29;20356;-82
2021/01/09 01:48:09;;;;;;;;;;;;;;;-1.05;100.00;99421.41;4897545;29;20021;-80
2021/01/09 01:50:35;;;;;;;;;;;;;;;-1.09;100.00;99424.72;4906025;29;19926;-81
2021/01/09 01:53:00;;;;;;;;;;;;;;;-1.08;100.00;99422.22;4897183;29;19919;-81
2021/01/09 01:55:26;;;;;;;;;;;;;;;-1.09;100.00;99419.66;4901300;29;19934;-81
2021/01/09 01:57:51;;;;;;;;;;;;;;;-1.12;100.00;99424.63;4901829;29;19930;-83
2021/01/09 02:00:17;;;;;;;;;;;;;;;-1.11;100.00;99421.31;4910662;29;19923;-81
2021/01/09 02:02:42;;;;;;;;;;;;;;;-1.04;100.00;99423.13;4901069;29;19991;-83
2021/01/09 02:05:08;;;;;;;;;;;;;;;-1.06;100.00;99429.84;4901577;29;20466;-81
2021/01/09 02:07:34;;;;;;;;;;;;;;;-1.05;100.00;99426.47;4912408;29;19919;-83
2021/01/09 02:09:59;;;;;;;;;;;;;;;-1.02;100.00;99430.75;4902979;29;19923;-82
2021/01/09 02:12:36;;;;;;;;;;;;;;;-0.97;100.00;99431.72;4902934;29;19958;-83
2021/01/09 02:15:02;;;;;;;;;;;;;;;-0.97;100.00;99432.56;4910226;29;19922;-82
2021/01/09 02:17:27;;;;;;;;;;;;;;;-1.04;100.00;99435.78;4902491;29;19927;-81
2021/01/09 02:19:52;;;;;;;;;;;;;;;-1.09;100.00;99432.31;4902912;29;19915;-81
2021/01/09 02:22:18;;;;;;;;;;;;;;;-1.15;100.00;99437.22;4911006;29;19926;-82
2021/01/09 02:24:44;;;;;;;;;;;;;;;-1.15;100.00;99434.69;4902148;29;20519;-82
2021/01/09 02:27:09;;;;;;;;;;;;;;;-1.16;100.00;99440.56;4901618;29;20034;-83
2021/01/09 02:29:44;;;;;;;;;;;;;;;-1.11;100.00;99441.53;4911359;29;20289;-81
2021/01/09 02:32:10;;;;;;;;;;;;;;;-1.15;100.00;99442.28;4912319;29;19987;-81
2021/01/09 02:34:36;;;;;;;;;;;;;;;-1.16;100.00;99453.22;4910926;29;19970;-82
2021/01/09 02:37:01;;;;;;;;;;;;;;;-1.14;100.00;99451.53;4919502;29;20006;-82
2021/01/09 02:39:28;;;;;;;;;;;;;;;-1.14;100.00;99443.97;4903015;29;20015;-83
2021/01/09 02:41:53;;;;;;;;;;;;;;;-1.14;100.00;99449.03;4910220;29;20046;-81
2021/01/09 02:44:18;;;;;;;;;;;;;;;-1.18;100.00;99444.75;4910718;29;20826;-81
2021/01/09 02:46:44;;;;;;;;;;;;;;;-1.18;100.00;99452.31;4905150;29;20353;-81
2021/01/09 02:49:09;;;;;;;;;;;;;;;-1.16;100.00;99448.16;4906568;29;19990;-81
2021/01/09 02:51:35;;;;;;;;;;;;;;;-1.15;100.00;99450.69;4905743;29;20005;-81
2021/01/09 02:54:00;;;;;;;;;;;;;;;-1.14;100.00;99452.44;4905900;29;20013;-83
2021/01/09 02:56:25;;;;;;;;;;;;;;;-1.15;100.00;99454.91;4887449;29;20013;-82
2021/01/09 02:58:51;;;;;;;;;;;;;;;-1.16;100.00;99455.75;4908275;29;19922;-82
2021/01/09 03:01:16;;;;;;;;;;;;;;;-1.17;100.00;99456.53;4903141;29;19975;-82
2021/01/09 03:03:41;;;;;;;;;;;;;;;-1.16;100.00;99463.31;4914308;29;19918;-83
2021/01/09 03:06:07;;;;;;;;;;;;;;;-1.09;100.00;99470.22;4904208;29;20025;-82
2021/01/09 03:08:33;;;;;;;;;;;;;;;-1.14;100.00;99471.75;4914219;29;20428;-81
2021/01/09 03:10:58;;;;;;;;;;;;;;;-1.17;100.00;99472.56;4922383;29;20001;-81
2021/01/09 03:13:23;;;;;;;;;;;;;;;-1.21;100.00;99475.81;4904590;29;19914;-82
2021/01/09 03:15:49;;;;;;;;;;;;;;;-1.19;100.00;99476.72;4901682;29;20460;-83
2021/01/09 03:18:14;;;;;;;;;;;;;;;-1.20;100.00;99481.75;4905573;29;20445;-82
2021/01/09 03:20:39;;;;;;;;;;;;;;;-1.27;100.00;99480.75;4903898;29;20373;-82
2021/01/09 03:23:05;;;;;;;;;;;;;;;-1.28;100.00;99471.44;4906988;29;19930;-82
2021/01/09 03:25:30;;;;;;;;;;;;;;;-1.32;100.00;99473.06;4904159;29;19926;-82
2021/01/09 03:27:55;;;;;;;;;;;;;;;-1.29;100.00;99477.34;4904484;29;19994;-81
2021/01/09 03:30:21;;;;;;;;;;;;;;;-1.24;100.00;99472.38;4903321;29;19923;-83
2021/01/09 03:32:46;;;;;;;;;;;;;;;-1.26;100.00;99473.19;4902181;29;19931;-82
2021/01/09 03:35:12;;;;;;;;;;;;;;;-1.26;100.00;99477.41;4905350;29;19966;-81
2021/01/09 03:37:37;;;;;;;;;;;;;;;-1.21;100.00;99474.97;4912117;29;20488;-82
2021/01/09 03:40:03;;;;;;;;;;;;;;;-1.25;100.00;99479.13;4903788;29;19922;-82
2021/01/09 03:42:28;;;;;;;;;;;;;;;-1.23;100.00;99474.97;4913308;29;19919;-82
2021/01/09 03:44:53;;;;;;;;;;;;;;;-1.20;100.00;99479.22;4913329;29;19927;-81
2021/01/09 03:47:19;;;;;;;;;;;;;;;-1.23;100.00;99476.59;4920984;29;19919;-82
2021/01/09 03:49:44;;;;;;;;;;;;;;;-1.25;100.00;99476.59;4902716;29;19958;-83
2021/01/09 03:52:09;;;;;;;;;;;;;;;-1.18;100.00;99475.06;4913355;29;19922;-81
2021/01/09 03:54:34;;;;;;;;;;;;;;;-1.23;100.00;99481.66;4904735;29;19973;-82
2021/01/09 03:57:00;;;;;;;;;;;;;;;-1.23;100.00;99476.59;4931009;29;19925;-81
2021/01/09 03:59:25;;;;;;;;;;;;;;;-1.16;100.00;99481.00;4905175;29;20029;-83
2021/01/09 04:01:50;;;;;;;;;;;;;;;-1.14;100.00;99476.81;4904707;29;19919;-81
2021/01/09 04:04:16;;;;;;;;;;;;;;;-1.20;100.00;99477.56;4912968;29;20017;-82
2021/01/09 04:06:41;;;;;;;;;;;;;;;-1.21;100.00;99477.50;4905687;29;19921;-83
2021/01/09 04:09:06;;;;;;;;;;;;;;;-1.25;100.00;99476.59;4904386;29;19918;-82
2021/01/09 04:11:32;;;;;;;;;;;;;;;-1.30;100.00;99479.00;4913666;29;19934;-81
2021/01/09 04:13:57;;;;;;;;;;;;;;;-1.26;100.00;99485.81;4928932;29;19923;-81
2021/01/09 04:16:22;;;;;;;;;;;;;;;-1.29;100.00;99488.28;4912714;29;19919;-82
2021/01/09 04:18:48;;;;;;;;;;;;;;;-1.29;100.00;99483.25;4902241;29;20027;-82
2021/01/09 04:21:13;;;;;;;;;;;;;;;-1.31;100.00;99481.50;4904955;29;19915;-82
2021/01/09 04:23:38;;;;;;;;;;;;;;;-1.34;100.00;99487.34;4902093;29;19949;-82
2021/01/09 04:26:03;;;;;;;;;;;;;;;-1.37;100.00;99489.81;4904589;29;19965;-82
2021/01/09 04:28:29;;;;;;;;;;;;;;;-1.35;100.00;99488.13;4905633;29;19941;-82
2021/01/09 04:30:54;;;;;;;;;;;;;;;-1.21;100.00;99490.13;4902682;29;19919;-83
2021/01/09 04:33:19;;;;;;;;;;;;;;;-1.27;100.00;99491.72;4905768;29;19930;-81
2021/01/09 04:35:45;;;;;;;;;;;;;;;-1.27;100.00;99499.28;4903196;29;19922;-82
2021/01/09 04:38:10;;;;;;;;;;;;;;;-1.29;100.00;99503.44;4901984;29;19923;-82
2021/01/09 04:40:36;;;;;;;;;;;;;;;-1.30;100.00;99501.75;4913189;29;20456;-82
2021/01/09 04:43:01;;;;;;;;;;;;;;;-1.31;100.00;99509.28;4913691;29;19923;-82
2021/01/09 04:45:27;;;;;;;;;;;;;;;-1.29;100.00;99513.56;4913198;29;21091;-83
2021/01/09 04:47:52;;;;;;;;;;;;;;;-1.25;100.00;99514.50;4903386;29;21020;-83
2021/01/09 04:50:17;;;;;;;;;;;;;;;-1.10;100.00;99519.03;4904136;29;19944;-83
2021/01/09 04:52:43;;;;;;;;;;;;;;;-1.17;100.00;99522.25;4903162;29;19940;-83
2021/01/09 04:55:08;;;;;;;;;;;;;;;-1.21;100.00;99518.78;4904510;29;20396;-83
2021/01/09 04:57:33;;;;;;;;;;;;;;;-1.19;100.00;99528.94;4904407;29;19923;-82
2021/01/09 04:59:59;;;;;;;;;;;;;;;-1.26;100.00;99528.78;4912452;29;20365;-83
2021/01/09 05:02:24;;;;;;;;;;;;;;;-1.29;100.00;99523.66;4921787;29;19925;-83
2021/01/09 05:04:51;;;;;;;;;;;;;;;-1.31;100.00;99527.81;4905198;29;20326;-83
2021/01/09 05:07:16;;;;;;;;;;;;;;;-1.29;100.00;99523.66;4913749;29;20464;-83
2021/01/09 05:09:42;;;;;;;;;;;;;;;-1.30;100.00;99532.06;4905630;29;20329;-83
2021/01/09 05:12:08;;;;;;;;;;;;;;;-1.31;100.00;99527.81;4906404;29;20391;-83
2021/01/09 05:14:34;;;;;;;;;;;;;;;-1.30;100.00;99521.97;4904112;29;19946;-83
2021/01/09 05:17:00;;;;;;;;;;;;;;;-1.26;100.00;99526.25;4906479;29;19922;-83
2021/01/09 05:19:29;;;;;;;;;;;;;;;-1.15;100.00;99526.50;4905278;29;19950;-82
2021/01/09 05:21:55;;;;;;;;;;;;;;;-0.76;100.00;99530.75;4903186;29;19953;-83
2021/01/09 05:24:20;;;;;;;;;;;;;;;-0.80;100.00;99530.66;4911882;29;20865;-83
2021/01/09 05:26:46;;;;;;;;;;;;;;;-0.90;100.00;99529.63;4905324;29;19923;-83
2021/01/09 05:29:11;;;;;;;;;;;;;;;-1.11;100.00;99533.34;4901247;29;19929;-83
2021/01/09 05:31:36;;;;;;;;;;;;;;;-1.04;100.00;99539.41;4912133;29;19926;-83
2021/01/09 05:34:03;;;;;;;;;;;;;;;-1.03;100.00;99545.31;4911683;29;19961;-83
2021/01/09 05:36:28;;;;;;;;;;;;;;;-1.01;100.00;99542.00;4913254;29;19927;-83
2021/01/09 05:38:53;;;;;;;;;;;;;;;-0.94;100.00;99541.31;4913086;29;20422;-83
2021/01/09 05:41:20;;;;;;;;;;;;;;;-0.99;100.00;99542.91;4915553;29;19945;-83
2021/01/09 05:43:47;;;;;;;;;;;;;;;-1.04;100.00;99544.47;4909115;29;20188;-83
2021/01/09 05:46:14;;;;;;;;;;;;;;;-1.06;100.00;99546.09;4904553;29;19923;-82
2021/01/09 05:48:39;;;;;;;;;;;;;;;-1.04;100.00;99544.47;4916471;29;19923;-83
2021/01/09 05:51:05;;;;;;;;;;;;;;;-1.08;100.00;99542.69;4900546;29;19923;-82
2021/01/09 05:53:51;;;;;;;;;;;;;;;-0.92;100.00;99544.75;4901324;29;19954;-81
2021/01/09 05:56:17;;;;;;;;;;;;;;;-1.15;100.00;99545.88;4925853;29;19945;-82
2021/01/09 05:58:43;;;;;;;;;;;;;;;-1.14;100.00;99552.63;4898438;29;20595;-82
2021/01/09 06:01:10;;;;;;;;;;;;;;;-1.17;100.00;99550.03;4910807;29;19962;-82
2021/01/09 06:03:45;;;;;;;;;;;;;;;-1.18;100.00;99548.34;4902916;29;19929;-82
2021/01/09 06:06:20;;;;;;;;;;;;;;;-1.26;100.00;99548.16;4901670;29;19930;-82
2021/01/09 06:08:47;;;;;;;;;;;;;;;-1.26;100.00;99546.47;4910684;29;19928;-82
2021/01/09 06:11:15;;;;;;;;;;;;;;;-1.32;100.00;99551.41;4900755;29;19922;-82
2021/01/09 06:13:40;;;;;;;;;;;;;;;-1.34;100.00;99547.13;4902190;29;19923;-82
2021/01/09 06:16:06;;;;;;;;;;;;;;;-1.33;100.00;99547.13;4898935;29;20013;-84
2021/01/09 06:18:31;;;;;;;;;;;;;;;-0.91;100.00;99546.47;4902624;29;19915;-82
2021/01/09 06:20:57;;;;;;;;;;;;;;;-0.30;100.00;99546.06;4899687;29;19915;-81
2021/01/09 06:23:22;;;;;;;;;;;;;;;-0.19;100.00;99543.75;4900771;29;19937;-82
2021/01/09 06:25:47;;;;;;;;;;;;;;;-0.33;100.00;99553.59;4910746;29;19919;-82
2021/01/09 06:28:13;;;;;;;;;;;;;;;-0.15;100.00;99551.44;4899756;29;19919;-82
2021/01/09 06:30:39;;;;;;;;;;;;;;;-0.02;100.00;99558.47;4902611;29;20356;-82
2021/01/09 06:33:04;;;;;;;;;;;;;;;0.03;100.00;99555.16;4901881;29;20292;-83
2021/01/09 06:35:35;;;;;;;;;;;;;;;0.02;100.00;99561.03;4901745;29;19958;-83
2021/01/09 06:38:01;;;;;;;;;;;;;;;0.14;100.00;99553.69;4911387;29;19921;-82
2021/01/09 06:40:26;;;;;;;;;;;;;;;0.34;100.00;99557.44;4903257;29;19923;-82
2021/01/09 06:42:51;;;;;;;;;;;;;;;0.15;100.00;99560.44;4913384;29;19926;-82
2021/01/09 06:45:17;;;;;;;;;;;;;;;0.27;100.00;99558.13;4901600;29;19958;-82
2021/01/09 06:47:44;;;;;;;;;;;;;;;0.20;100.00;99563.91;4900578;29;19935;-82
2021/01/09 06:50:18;;;;;;;;;;;;;;;-0.01;100.00;99574.50;4901628;29;19915;-82
2021/01/09 06:52:52;;;;;;;;;;;;;;;0.18;100.00;99573.16;4912648;29;19975;-83
2021/01/09 06:55:37;;;;;;;;;;;;;;;-0.13;100.00;99579.34;4912715;29;19915;-82
2021/01/09 06:58:06;;;;;;;;;;;;;;;-0.15;100.00;99573.38;4926067;29;19967;-82
2021/01/09 07:00:31;;;;;;;;;;;;;;;0.05;100.00;99569.56;4901465;29;19965;-83
2021/01/09 07:03:10;;;;;;;;;;;;;;;-0.20;100.00;99568.22;4887533;29;20341;-85
2021/01/09 07:05:48;;;;;;;;;;;;;;;-0.09;100.00;99570.94;4907215;29;19922;-84
2021/01/09 07:08:20;;;;;;;;;;;;;;;-0.27;100.00;99584.09;4902453;29;20928;-83
2021/01/09 07:10:54;;;;;;;;;;;;;;;-0.31;100.00;99579.78;4902343;29;20005;-83
2021/01/09 07:13:20;;;;;;;;;;;;;;;-0.39;100.00;99578.78;4917067;29;19919;-81
2021/01/09 07:15:45;;;;;;;;;;;;;;;-0.48;100.00;99585.38;4902035;29;20377;-83
2021/01/09 07:18:11;;;;;;;;;;;;;;;-0.41;100.00;99583.81;4911634;29;19919;-81
2021/01/09 07:20:37;;;;;;;;;;;;;;;-0.80;100.00;99588.81;4899082;29;19919;-82
2021/01/09 07:23:06;;;;;;;;;;;;;;;-0.63;100.00;99597.66;4900145;29;19931;-82
2021/01/09 07:25:38;;;;;;;;;;;;;;;-0.82;100.00;99593.00;4900196;29;19929;-81
2021/01/09 07:28:06;;;;;;;;;;;;;;;-0.86;100.00;99589.56;4901167;29;19949;-81
2021/01/09 07:30:31;;;;;;;;;;;;;;;-0.85;100.00;99597.16;4899364;29;20166;-81
2021/01/09 07:32:57;;;;;;;;;;;;;;;-0.53;100.00;99591.97;4909892;29;20366;-81
2021/01/09 07:35:27;;;;;;;;;;;;;;;-0.43;100.00;99593.91;4909881;29;19995;-81
2021/01/09 07:37:59;;;;;;;;;;;;;;;-0.78;100.00;99597.31;4897329;29;19923;-82
2021/01/09 07:40:25;;;;;;;;;;;;;;;-0.63;100.00;99597.66;4900264;29;20041;-81
2021/01/09 07:42:50;;;;;;;;;;;;;;;-0.77;100.00;99596.50;4901730;29;20341;-82
2021/01/09 07:45:20;;;;;;;;;;;;;;;-0.74;100.00;99605.00;4901007;29;19931;-82
2021/01/09 07:47:46;;;;;;;;;;;;;;;-0.64;100.00;99601.88;4900330;29;20440;-83
2021/01/09 07:50:12;;;;;;;;;;;;;;;-0.70;100.00;99603.41;4899835;29;20026;-83
2021/01/09 07:52:38;;;;;;;;;;;;;;;-0.72;100.00;99598.31;4899384;29;19978;-81
2021/01/09 07:55:04;;;;;;;;;;;;;;;-0.68;100.00;99610.19;4895539;29;19919;-82
2021/01/09 07:57:30;;;;;;;;;;;;;;;-0.68;100.00;99609.34;4895710;29;19930;-82
2021/01/09 07:59:56;;;;;;;;;;;;;;;-0.45;100.00;99607.34;4911441;29;19995;-81
2021/01/09 08:02:22;;;;;;;;;;;;;;;-0.50;100.00;99609.78;4906876;29;20030;-83
2021/01/09 08:04:47;;;;;;;;;;;;;;;-0.39;100.00;99614.19;4896614;29;19987;-80
2021/01/09 08:07:16;;;;;;;;;;;;;;;-0.33;100.00;99622.78;4907256;29;20356;-80
2021/01/09 08:09:41;;;;;;;;;;;;;;;-0.63;100.00;99623.81;4881159;29;19919;-82
2021/01/09 08:12:07;;;;;;;;;;;;;;;-0.18;100.00;99629.88;4899796;29;19998;-83
2021/01/09 08:14:32;;;;;;;;;;;;;;;-0.24;100.00;99632.25;4901860;29;19923;-81
2021/01/09 08:17:06;;;;;;;;;;;;;;;-0.09;100.00;99635.13;4896339;29;19919;-81
2021/01/09 08:19:31;;;;;;;;;;;;;;;-0.17;100.00;99634.09;4900447;29;20009;-82
2021/01/09 08:21:57;;;;;;;;;;;;;;;-0.39;100.00;99642.03;4905225;29;19987;-81
2021/01/09 08:24:22;;;;;;;;;;;;;;;-0.30;100.00;99638.03;4902846;29;19979;-83
2021/01/09 08:26:51;;;;;;;;;;;;;;;-0.29;100.00;99641.44;4912528;29;19957;-82
2021/01/09 08:29:16;;;;;;;;;;;;;;;-0.38;100.00;99648.81;4898293;29;19929;-82
2021/01/09 08:31:41;;;;;;;;;;;;;;;-0.29;100.00;99654.09;4911090;29;19919;-83
2021/01/09 08:34:09;;;;;;;;;;;;;;;-0.34;100.00;99653.97;4901342;29;19919;-81
2021/01/09 08:36:34;;;;;;;;;;;;;;;-0.63;100.00;99653.31;4894662;29;20766;-83
2021/01/09 08:39:00;;;;;;;;;;;;;;;-0.77;100.00;99664.78;4899510;29;19973;-82
2021/01/09 08:41:34;;;;;;;;;;;;;;;-0.71;100.00;99653.13;4907492;29;20015;-81
2021/01/09 08:44:09;;;;;;;;;;;;;;;-0.55;100.00;99656.00;4900758;29;20369;-82
2021/01/09 08:46:35;;;;;;;;;;;;;;;-0.46;100.00;99657.09;4896229;29;20409;-80
2021/01/09 08:49:01;;;;;;;;;;;;;;;-0.42;100.00;99658.84;4898523;29;19923;-82
2021/01/09 08:51:26;;;;;;;;;;;;;;;-0.25;100.00;99664.31;4897361;29;19933;-82
2021/01/09 08:53:59;;;;;;;;;;;;;;;-0.16;100.00;99667.84;4898387;29;19923;-82
2021/01/09 08:56:28;;;;;;;;;;;;;;;-0.17;100.00;99669.53;4897550;29;19930;-82
2021/01/09 08:58:54;;;;;;;;;;;;;;;0.03;100.00;99666.59;4897767;29;20963;-82
2021/01/09 09:01:25;;;;;;;;;;;;;;;-0.01;100.00;99666.50;4900118;29;19962;-82
2021/01/09 09:03:51;;;;;;;;;;;;;;;-0.31;100.00;99668.38;4896726;29;19919;-82
2021/01/09 09:06:16;;;;;;;;;;;;;;;0.13;100.00;99660.88;4898897;29;19990;-81
2021/01/09 09:08:42;;;;;;;;;;;;;;;0.28;100.00;99667.94;4897201;29;20781;-82
2021/01/09 09:11:08;;;;;;;;;;;;;;;0.26;100.00;99670.44;4897129;29;20021;-82
2021/01/09 09:13:33;;;;;;;;;;;;;;;0.08;100.00;99665.00;4899720;29;19930;-81
2021/01/09 09:16:09;;;;;;;;;;;;;;;-0.02;100.00;99664.81;4897672;29;19923;-82
2021/01/09 09:18:35;;;;;;;;;;;;;;;0.08;100.00;99663.31;4895670;29;19977;-81
2021/01/09 09:21:00;;;;;;;;;;;;;;;0.03;100.00;99662.38;4897354;29;19919;-81
2021/01/09 09:23:25;;;;;;;;;;;;;;;0.07;100.00;99663.25;4895476;29;19938;-81
2021/01/09 09:26:07;;;;;;;;;;;;;;;-0.15;100.00;99679.69;4902523;29;19930;-83
2021/01/09 09:28:42;;;;;;;;;;;;;;;0.07;100.00;99681.00;4896025;29;19923;-82
2021/01/09 09:31:28;;;;;;;;;;;;;;;0.28;100.00;99678.91;4895887;29;19926;-82
2021/01/09 09:34:01;;;;;;;;;;;;;;;0.16;100.00;99688.78;4910398;29;19915;-82
2021/01/09 09:36:27;;;;;;;;;;;;;;;0.48;100.00;99680.97;4897047;29;19999;-81
2021/01/09 09:38:52;;;;;;;;;;;;;;;0.61;100.00;99688.00;4899956;29;19923;-82
2021/01/09 09:41:17;;;;;;;;;;;;;;;0.74;100.00;99697.53;4897926;29;20603;-81
2021/01/09 09:43:52;;;;;;;;;;;;;;;0.47;100.00;99699.56;4899803;29;20362;-82
2021/01/09 09:46:18;;;;;;;;;;;;;;;0.68;100.00;99699.97;4897635;29;20409;-83
2021/01/09 09:48:44;;;;;;;;;;;;;;;-0.43;100.00;99711.97;4894983;29;19919;-82
2021/01/09 09:51:12;;;;;;;;;;;;;;;-0.58;100.00;99712.44;4895795;29;19979;-82
2021/01/09 09:53:42;;;;;;;;;;;;;;;-0.72;100.00;99703.69;4907775;29;19955;-82
2021/01/09 09:56:14;;;;;;;;;;;;;;;-0.71;100.00;99705.38;4900873;29;19919;-82
2021/01/09 10:02:08;;;;;;;;;;;;;;;-0.45;100.00;99704.34;4909156;29;19930;-82
2021/01/09 10:04:33;;;;;;;;;;;;;;;-0.45;100.00;99704.34;4900298;29;19923;-82
2021/01/09 10:06:58;;;;;;;;;;;;;;;-0.52;100.00;99706.69;4896730;29;19926;-81
2021/01/09 10:09:24;;;;;;;;;;;;;;;-0.58;100.00;99706.53;4906437;29;19926;-82
2021/01/09 10:11:50;;;;;;;;;;;;;;;-0.54;100.00;99706.66;4896052;29;19923;-82
2021/01/09 10:14:16;;;;;;;;;;;;;;;-0.61;100.00;99711.53;4897285;29;19942;-84
2021/01/09 10:16:41;;;;;;;;;;;;;;;-0.52;100.00;99725.25;4901068;29;19921;-83
2021/01/09 10:19:09;;;;;;;;;;;;;;;-0.65;100.00;99723.25;4909548;29;20533;-81
2021/01/09 10:21:35;;;;;;;;;;;;;;;-0.60;100.00;99714.09;4909555;29;19926;-83
2021/01/09 10:24:01;;;;;;;;;;;;;;;-0.60;100.00;99719.13;4898093;29;19935;-83
2021/01/09 10:26:34;;;;;;;;;;;;;;;-0.42;100.00;99712.00;4898414;29;19960;-81
2021/01/09 10:29:00;;;;;;;;;;;;;;;-0.52;100.00;99717.66;4896208;29;19915;-82
2021/01/09 10:31:32;;;;;;;;;;;;;;;-0.13;100.00;99716.88;4898840;29;20396;-81
2021/01/09 10:33:58;;;;;;;;;;;;;;;0.26;100.00;99713.50;4898034;29;19919;-83
2021/01/09 10:36:24;;;;;;;;;;;;;;;0.58;100.00;99703.16;4899996;29;20068;-81
2021/01/09 10:38:49;;;;;;;;;;;;;;;0.07;100.00;99703.78;4900194;29;20254;-82
2021/01/09 10:41:14;;;;;;;;;;;;;;;0.04;100.00;99709.63;4900797;29;19965;-83
2021/01/09 10:43:40;;;;;;;;;;;;;;;0.10;100.00;99706.41;4902268;29;20490;-83
2021/01/09 10:46:05;;;;;;;;;;;;;;;-0.44;100.00;99711.09;4899560;29;19927;-81
2021/01/09 10:48:30;;;;;;;;;;;;;;;-0.33;100.00;99707.97;4907607;29;19970;-81
2021/01/09 10:50:56;;;;;;;;;;;;;;;-0.24;100.00;99703.97;4892270;29;19923;-83
2021/01/09 10:53:21;;;;;;;;;;;;;;;-0.09;100.00;99705.13;4891833;29;19948;-82
2021/01/09 10:55:47;;;;;;;;;;;;;;;-0.07;100.00;99695.88;4892822;29;19923;-81
2021/01/09 10:58:13;;;;;;;;;;;;;;;-0.02;100.00;99700.25;4904223;29;19923;-81
2021/01/09 11:00:38;;;;;;;;;;;;;;;0.12;100.00;99687.88;4909464;29;19915;-82
2021/01/09 11:03:04;;;;;;;;;;;;;;;0.12;100.00;99689.56;4908196;29;19923;-82
2021/01/09 11:05:31;;;;;;;;;;;;;;;0.38;100.00;99690.94;4913683;29;19950;-82
2021/01/09 11:07:56;;;;;;;;;;;;;;;0.28;100.00;99694.13;4898204;29;19927;-80
2021/01/09 11:10:22;;;;;;;;;;;;;;;0.32;100.00;99690.84;4908633;29;19916;-82
2021/01/09 11:12:47;;;;;;;;;;;;;;;0.35;100.00;99698.47;4902613;29;19929;-82
2021/01/09 11:15:13;;;;;;;;;;;;;;;0.52;100.00;99695.44;4895578;29;20353;-81
2021/01/09 11:17:38;;;;;;;;;;;;;;;0.54;100.00;99702.22;4903970;29;19923;-82
2021/01/09 11:20:04;;;;;;;;;;;;;;;0.50;100.00;99699.59;4905118;29;19919;-81
2021/01/09 11:22:29;;;;;;;;;;;;;;;0.24;100.00;99702.47;4896449;29;20270;-80
2021/01/09 11:24:55;;;;;;;;;;;;;;;0.29;100.00;99698.34;4895046;29;19990;-82
2021/01/09 11:27:20;;;;;;;;;;;;;;;0.72;100.00;99699.19;4905412;29;20428;-80
2021/01/09 11:29:46;;;;;;;;;;;;;;;0.55;100.00;99692.97;4904164;29;19919;-81
2021/01/09 11:32:11;;;;;;;;;;;;;;;0.88;100.00;99687.66;4900672;29;19923;-81
2021/01/09 11:34:36;;;;;;;;;;;;;;;0.53;100.00;99689.56;4891938;29;19931;-81
2021/01/09 11:37:02;;;;;;;;;;;;;;;1.09;100.00;99681.25;4895415;29;19919;-81
2021/01/09 11:39:27;;;;;;;;;;;;;;;1.00;100.00;99684.47;4884343;29;20413;-82
2021/01/09 11:42:01;;;;;;;;;;;;;;;0.38;100.00;99688.41;4894897;29;19983;-82
2021/01/09 11:44:27;;;;;;;;;;;;;;;0.41;100.00;99687.59;4897642;29;19923;-80
2021/01/09 11:46:55;;;;;;;;;;;;;;;0.43;100.00;99687.63;4911160;29;19919;-81
2021/01/09 11:49:20;;;;;;;;;;;;;;;0.53;100.00;99689.56;4892502;29;19918;-81
2021/01/09 11:51:46;;;;;;;;;;;;;;;0.46;100.00;99677.56;4894751;29;20460;-82
2021/01/09 11:54:11;;;;;;;;;;;;;;;0.68;100.00;99679.69;4896780;29;19933;-81
2021/01/09 11:56:36;;;;;;;;;;;;;;;0.72;100.00;99685.69;4913260;29;20638;-80
2021/01/09 11:59:02;;;;;;;;;;;;;;;0.37;100.00;99684.16;4895101;29;20650;-81
2021/01/09 12:01:34;;;;;;;;;;;;;;;0.35;100.00;99685.81;4895300;29;19943;-80
2021/01/09 12:03:59;;;;;;;;;;;;;;;0.40;100.00;99679.16;4887176;29;19918;-81
2021/01/09 12:06:24;;;;;;;;;;;;;;;0.23;100.00;99679.63;4886914;29;20013;-81
2021/01/09 12:08:50;;;;;;;;;;;;;;;0.09;100.00;99677.69;4894007;29;19962;-80
2021/01/09 12:11:21;;;;;;;;;;;;;;;0.12;100.00;99676.91;4895664;29;19938;-81
2021/01/09 12:13:47;;;;;;;;;;;;;;;0.23;100.00;99672.03;4886377;29;19969;-81
2021/01/09 12:16:12;;;;;;;;;;;;;;;0.32;100.00;99675.63;4886502;29;20324;-80
2021/01/09 12:18:37;;;;;;;;;;;;;;;0.29;100.00;99673.00;4890222;29;20441;-81
2021/01/09 12:21:03;;;;;;;;;;;;;;;0.35;100.00;99669.75;4894041;29;19962;-80
2021/01/09 12:23:28;;;;;;;;;;;;;;;0.36;100.00;99661.31;4894445;29;19945;-80
2021/01/09 12:25:54;;;;;;;;;;;;;;;0.33;100.00;99677.31;4894245;29;19915;-80
2021/01/09 12:28:19;;;;;;;;;;;;;;;0.33;100.00;99664.66;4895110;29;19911;-81
2021/01/09 12:30:47;;;;;;;;;;;;;;;0.41;100.00;99670.75;4902203;29;19921;-81
2021/01/09 12:33:12;;;;;;;;;;;;;;;0.36;100.00;99662.19;4884275;29;19966;-80
2021/01/09 12:35:37;;;;;;;;;;;;;;;0.59;100.00;99666.84;4890985;29;19923;-83
2021/01/09 12:38:03;;;;;;;;;;;;;;;0.80;100.00;99661.34;4885000;29;19915;-82